createdAt,value
2022-11-03T00:01:34.671Z,4.28
2022-11-03T00:04:02.412Z,4.23
2022-11-03T00:06:30.079Z,4.19
2022-11-03T00:09:01.143Z,4.20
2022-11-03T00:11:29.289Z,4.22
2022-11-03T00:13:57.791Z,4.22
2022-11-03T00:16:25.448Z,3.98
2022-11-03T00:18:53.372Z,3.97
2022-11-03T00:21:21.081Z,4.21
2022-11-03T00:23:49.202Z,3.18
2022-11-03T00:26:20.806Z,4.19
2022-11-03T00:28:52.464Z,4.19
2022-11-03T00:31:22.136Z,4.17
2022-11-03T00:33:50.293Z,3.84
2022-11-03T00:36:20.625Z,4.16
2022-11-03T00:38:48.744Z,3.51
2022-11-03T00:41:20.624Z,4.11
2022-11-03T00:43:49.843Z,4.09
2022-11-03T00:46:18.135Z,4.05
2022-11-03T00:48:46.075Z,4.04
2022-11-03T00:51:16.527Z,4.07
2022-11-03T00:53:45.668Z,3.84
2022-11-03T00:56:19.679Z,4.09
2022-11-03T00:58:47.836Z,3.82
2022-11-03T01:01:17.610Z,4.04
2022-11-03T01:04:06.822Z,4.06
2022-11-03T01:06:50.672Z,3.94
2022-11-03T01:09:18.628Z,3.92
2022-11-03T01:11:58.539Z,4.03
2022-11-03T01:14:28.543Z,4.04
2022-11-03T01:16:56.494Z,3.85
2022-11-03T01:19:25.257Z,4.04
2022-11-03T01:21:53.552Z,4.04
2022-11-03T01:24:21.742Z,4.00
2022-11-03T01:26:51.002Z,3.63
2022-11-03T01:29:19.003Z,3.97
2022-11-03T01:31:46.707Z,3.92
2022-11-03T01:34:16.467Z,3.96
2022-11-03T01:36:44.844Z,4.01
2022-11-03T01:39:13.974Z,3.88
2022-11-03T01:41:43.079Z,3.85
2022-11-03T01:44:34.179Z,4.09
2022-11-03T01:47:16.154Z,4.01
2022-11-03T01:49:48.072Z,3.96
2022-11-03T01:52:20.934Z,3.98
2022-11-03T01:54:52.739Z,3.99
2022-11-03T01:57:25.539Z,3.99
2022-11-03T01:59:55.997Z,3.99
2022-11-03T02:02:27.341Z,4.00
2022-11-03T02:04:56.689Z,3.99
2022-11-03T02:07:30.078Z,4.00
2022-11-03T02:09:57.851Z,3.99
2022-11-03T02:12:25.758Z,3.84
2022-11-03T02:14:58.959Z,3.65
2022-11-03T02:17:29.911Z,3.86
2022-11-03T02:20:01.066Z,3.87
2022-11-03T02:22:49.853Z,3.60
2022-11-03T02:25:31.233Z,3.76
2022-11-03T02:27:59.351Z,3.84
2022-11-03T02:30:29.645Z,3.80
2022-11-03T02:33:04.210Z,3.56
2022-11-03T02:35:38.622Z,3.73
2022-11-03T02:38:10.712Z,3.80
2022-11-03T02:40:46.437Z,3.79
2022-11-03T02:43:16.442Z,3.63
2022-11-03T02:45:47.799Z,3.70
2022-11-03T02:48:16.875Z,3.67
2022-11-03T02:50:45.203Z,3.67
2022-11-03T02:53:14.057Z,3.68
2022-11-03T02:55:53.432Z,3.62
2022-11-03T02:58:29.232Z,3.77
2022-11-03T03:01:04.034Z,3.66
2022-11-03T03:03:36.743Z,3.16
2022-11-03T03:06:09.455Z,3.61
2022-11-03T03:08:43.950Z,3.58
2022-11-03T03:11:14.545Z,3.51
2022-11-03T03:13:45.077Z,3.35
2022-11-03T03:16:17.656Z,3.47
2022-11-03T03:18:52.228Z,2.90
2022-11-03T03:21:25.115Z,3.41
2022-11-03T03:23:58.483Z,3.46
2022-11-03T03:26:30.930Z,3.43
2022-11-03T03:29:03.991Z,3.43
2022-11-03T03:31:37.879Z,3.46
2022-11-03T03:34:31.228Z,3.40
2022-11-03T03:36:59.833Z,3.37
2022-11-03T03:39:32.732Z,3.33
2022-11-03T03:42:04.445Z,3.34
2022-11-03T03:44:33.540Z,3.27
2022-11-03T03:47:04.851Z,3.29
2022-11-03T03:49:32.488Z,3.22
2022-11-03T03:52:00.486Z,3.19
2022-11-03T03:54:28.147Z,3.10
2022-11-03T03:57:01.711Z,3.10
2022-11-03T03:59:31.303Z,2.93
2022-11-03T04:01:59.575Z,3.09
2022-11-03T04:04:27.437Z,3.16
2022-11-03T04:07:15.302Z,3.08
2022-11-03T04:09:42.916Z,3.00
2022-11-03T04:12:28.475Z,3.04
2022-11-03T04:15:14.899Z,2.96
2022-11-03T04:18:02.930Z,2.94
2022-11-03T04:20:48.254Z,2.95
2022-11-03T04:23:15.933Z,2.90
2022-11-03T04:25:50.710Z,2.87
2022-11-03T04:28:19.738Z,2.73
2022-11-03T04:30:48.714Z,2.84
2022-11-03T04:33:18.408Z,2.86
2022-11-03T04:35:47.274Z,2.80
2022-11-03T04:38:24.088Z,2.78
2022-11-03T04:40:55.158Z,2.65
2022-11-03T04:43:25.102Z,2.64
2022-11-03T04:45:54.138Z,2.74
2022-11-03T04:48:23.518Z,2.69
2022-11-03T04:50:54.661Z,2.66
2022-11-03T04:53:23.812Z,2.59
2022-11-03T04:55:54.162Z,2.70
2022-11-03T04:58:23.465Z,2.63
2022-11-03T05:00:54.855Z,2.60
2022-11-03T05:03:25.403Z,2.56
2022-11-03T05:05:53.062Z,2.57
2022-11-03T05:08:22.197Z,2.66
2022-11-03T05:10:50.757Z,2.55
2022-11-03T05:13:22.500Z,2.70
2022-11-03T05:15:52.275Z,2.49
2022-11-03T05:18:23.436Z,2.60
2022-11-03T05:20:55.071Z,2.56
2022-11-03T05:23:23.844Z,2.50
2022-11-03T05:25:54.252Z,2.54
2022-11-03T05:28:25.760Z,2.76
2022-11-03T05:30:54.118Z,2.61
2022-11-03T05:33:30.936Z,2.62
2022-11-03T05:36:02.014Z,2.57
2022-11-03T05:38:33.486Z,2.55
2022-11-03T05:41:02.218Z,2.67
2022-11-03T05:43:30.620Z,2.56
2022-11-03T05:46:02.768Z,2.50
2022-11-03T05:48:35.325Z,2.51
2022-11-03T05:51:11.704Z,2.50
2022-11-03T05:53:43.238Z,2.48
2022-11-03T05:56:16.986Z,2.46
2022-11-03T05:58:45.586Z,2.45
2022-11-03T06:01:17.700Z,2.39
2022-11-03T06:03:47.538Z,2.58
2022-11-03T06:06:19.897Z,2.52
2022-11-03T06:08:48.362Z,1.93
2022-11-03T06:11:23.811Z,2.45
2022-11-03T06:13:51.480Z,2.48
2022-11-03T06:16:38.094Z,2.51
2022-11-03T06:19:19.515Z,2.56
2022-11-03T06:21:47.423Z,2.62
2022-11-03T06:24:16.929Z,2.62
2022-11-03T06:26:46.535Z,2.70
2022-11-03T06:29:17.150Z,2.75
2022-11-03T06:31:47.893Z,2.82
2022-11-03T06:34:28.819Z,2.86
2022-11-03T06:36:58.268Z,3.05
2022-11-03T06:39:26.380Z,3.12
2022-11-03T06:41:54.151Z,3.17
2022-11-03T06:44:25.345Z,3.18
2022-11-03T06:46:55.316Z,3.24
2022-11-03T06:49:30.560Z,3.03
2022-11-03T06:52:00.331Z,3.29
2022-11-03T06:54:27.997Z,3.34
2022-11-03T06:56:55.692Z,3.38
2022-11-03T06:59:23.344Z,3.44
2022-11-03T07:01:55.547Z,3.50
2022-11-03T07:04:29.038Z,3.54
2022-11-03T07:07:00.253Z,3.42
2022-11-03T07:09:28.095Z,3.62
2022-11-03T07:11:58.025Z,3.62
2022-11-03T07:14:28.657Z,3.63
2022-11-03T07:17:00.586Z,3.63
2022-11-03T07:19:34.106Z,3.64
2022-11-03T07:22:03.561Z,3.71
2022-11-03T07:24:33.952Z,3.70
2022-11-03T07:27:08.535Z,3.71
2022-11-03T07:29:36.161Z,3.48
2022-11-03T07:32:10.537Z,3.73
2022-11-03T07:34:39.570Z,3.98
2022-11-03T07:37:15.162Z,4.07
2022-11-03T07:39:42.812Z,3.52
2022-11-03T07:42:16.460Z,4.28
2022-11-03T07:44:44.232Z,4.29
2022-11-03T07:47:14.739Z,4.37
2022-11-03T07:49:43.817Z,4.40
2022-11-03T07:52:14.789Z,4.42
2022-11-03T07:54:42.476Z,4.75
2022-11-03T07:57:16.815Z,4.77
2022-11-03T07:59:48.493Z,4.74
2022-11-03T08:02:30.810Z,4.81
2022-11-03T08:05:00.101Z,4.55
2022-11-03T08:07:28.459Z,4.81
2022-11-03T08:09:56.373Z,4.94
2022-11-03T08:12:24.266Z,5.01
2022-11-03T08:14:51.913Z,5.05
2022-11-03T08:17:19.594Z,5.16
2022-11-03T08:19:47.244Z,5.13
2022-11-03T08:22:16.277Z,5.21
2022-11-03T08:24:44.141Z,5.28
2022-11-03T08:27:11.827Z,5.34
2022-11-03T08:29:39.506Z,5.55
2022-11-03T08:32:07.137Z,5.55
2022-11-03T08:34:34.769Z,5.41
2022-11-03T08:37:02.507Z,5.70
2022-11-03T08:39:32.194Z,5.88
2022-11-03T08:41:59.852Z,6.11
2022-11-03T08:44:27.512Z,6.04
2022-11-03T08:46:55.151Z,6.08
2022-11-03T08:49:22.805Z,6.20
2022-11-03T08:51:50.469Z,6.11
2022-11-03T08:54:18.199Z,6.34
2022-11-03T08:56:48.843Z,6.51
2022-11-03T08:59:18.002Z,6.52
2022-11-03T09:01:45.952Z,6.59
2022-11-03T09:04:13.746Z,6.62
2022-11-03T09:06:41.657Z,6.62
2022-11-03T09:11:58.347Z,6.79
2022-11-03T09:14:26.000Z,6.87
2022-11-03T09:16:53.735Z,7.01
2022-11-03T09:19:21.558Z,6.93
2022-11-03T09:21:49.261Z,6.98
2022-11-03T09:24:16.912Z,7.01
2022-11-03T09:26:44.741Z,7.04
2022-11-03T09:29:13.771Z,6.95
2022-11-03T09:31:41.465Z,7.06
2022-11-03T09:34:09.128Z,7.18
2022-11-03T09:36:36.771Z,7.34
2022-11-03T09:39:04.464Z,7.52
2022-11-03T09:41:55.737Z,7.69
2022-11-03T09:44:22.546Z,7.87
2022-11-03T09:46:55.424Z,7.97
2022-11-03T09:49:26.000Z,8.06
2022-11-03T09:51:54.117Z,8.07
2022-11-03T09:54:21.805Z,8.35
2022-11-03T09:56:49.557Z,8.52
2022-11-03T09:59:18.671Z,8.46
2022-11-03T10:01:50.759Z,8.39
2022-11-03T10:04:22.864Z,8.50
2022-11-03T10:06:50.572Z,8.48
2022-11-03T10:09:20.631Z,8.55
2022-11-03T10:11:48.897Z,8.61
2022-11-03T10:14:18.935Z,8.54
2022-11-03T10:16:53.578Z,8.02
2022-11-03T10:19:21.508Z,8.78
2022-11-03T10:21:49.207Z,8.90
2022-11-03T10:24:20.300Z,8.87
2022-11-03T10:26:49.796Z,8.88
2022-11-03T10:29:20.873Z,8.85
2022-11-03T10:31:51.948Z,9.18
2022-11-03T10:34:28.925Z,9.21
2022-11-03T10:37:18.205Z,9.26
2022-11-03T10:39:46.160Z,9.28
2022-11-03T10:42:22.013Z,9.20
2022-11-03T10:44:53.023Z,9.31
2022-11-03T10:47:32.085Z,9.61
2022-11-03T10:50:00.358Z,9.78
2022-11-03T10:52:30.420Z,9.45
2022-11-03T10:55:00.282Z,10.17
2022-11-03T10:57:28.530Z,10.27
2022-11-03T10:59:56.858Z,10.30
2022-11-03T11:02:31.202Z,10.12
2022-11-03T11:05:01.289Z,10.33
2022-11-03T11:07:33.697Z,10.38
2022-11-03T11:10:08.231Z,10.38
2022-11-03T11:12:36.303Z,10.43
2022-11-03T11:15:25.118Z,10.03
2022-11-03T11:17:54.199Z,10.58
2022-11-03T11:20:34.736Z,10.61
2022-11-03T11:23:48.920Z,10.64
2022-11-03T11:26:38.693Z,10.49
2022-11-03T11:29:45.032Z,10.49
2022-11-03T11:32:51.124Z,10.56
2022-11-03T11:36:05.355Z,10.53
2022-11-03T11:39:10.767Z,10.61
2022-11-03T11:42:10.255Z,10.69
2022-11-03T11:44:46.811Z,10.62
2022-11-03T11:47:26.778Z,10.49
2022-11-03T11:50:17.005Z,10.55
2022-11-03T11:52:47.859Z,10.50
2022-11-03T11:55:21.455Z,10.39
2022-11-03T11:57:49.416Z,10.21
2022-11-03T12:00:23.814Z,10.39
2022-11-03T12:02:52.439Z,10.33
2022-11-03T12:05:22.710Z,10.25
2022-11-03T12:07:51.978Z,10.12
2022-11-03T12:10:23.725Z,10.30
2022-11-03T12:12:51.529Z,10.28
2022-11-03T12:15:51.512Z,10.12
2022-11-03T12:18:38.915Z,10.46
2022-11-03T12:21:09.681Z,10.49
2022-11-03T12:23:42.695Z,10.58
2022-11-03T12:26:20.091Z,10.57
2022-11-03T12:28:47.736Z,9.97
2022-11-03T12:31:15.377Z,10.56
2022-11-03T12:33:43.047Z,10.64
2022-11-03T12:36:10.929Z,10.69
2022-11-03T12:38:39.165Z,10.68
2022-11-03T12:41:24.288Z,10.62
2022-11-03T12:43:55.888Z,10.60
2022-11-03T12:46:24.642Z,10.65
2022-11-03T12:48:52.541Z,10.52
2022-11-03T12:51:21.879Z,10.57
2022-11-03T12:53:50.391Z,10.54
2022-11-03T12:56:19.395Z,10.51
2022-11-03T12:58:48.294Z,10.21
2022-11-03T13:01:21.615Z,10.58
2022-11-03T13:03:50.429Z,10.55
2022-11-03T13:06:18.300Z,10.55
2022-11-03T13:08:47.848Z,10.55
2022-11-03T13:11:37.166Z,10.54
2022-11-03T13:14:08.566Z,10.52
2022-11-03T13:16:39.082Z,10.64
2022-11-03T13:19:06.773Z,10.57
2022-11-03T13:21:35.907Z,10.67
2022-11-03T13:24:03.579Z,10.68
2022-11-03T13:26:31.274Z,10.68
2022-11-03T13:28:58.999Z,10.71
2022-11-03T13:31:26.683Z,10.67
2022-11-03T13:33:55.706Z,10.31
2022-11-03T13:36:23.509Z,10.66
2022-11-03T13:38:52.466Z,10.69
2022-11-03T13:41:20.174Z,10.68
2022-11-03T13:43:47.857Z,10.68
2022-11-03T13:46:15.532Z,10.67
2022-11-03T13:51:32.300Z,10.64
2022-11-03T13:59:35.918Z,10.61
2022-11-03T14:04:51.349Z,10.62
2022-11-03T14:07:20.336Z,10.60
2022-11-03T14:09:48.032Z,10.73
2022-11-03T14:12:29.710Z,10.63
2022-11-03T14:14:57.425Z,10.52
2022-11-03T14:17:25.260Z,10.50
2022-11-03T14:19:55.558Z,10.45
2022-11-03T14:22:30.283Z,10.49
2022-11-03T14:24:57.971Z,10.23
2022-11-03T14:27:26.182Z,10.38
2022-11-03T14:29:54.237Z,10.42
2022-11-03T14:32:22.110Z,10.46
2022-11-03T14:34:49.841Z,10.53
2022-11-03T14:37:17.698Z,10.46
2022-11-03T14:39:46.833Z,10.52
2022-11-03T14:42:15.602Z,10.33
2022-11-03T14:44:46.218Z,10.25
2022-11-03T14:47:17.517Z,10.17
2022-11-03T14:49:45.899Z,10.13
2022-11-03T14:52:14.541Z,10.06
2022-11-03T14:54:42.966Z,9.99
2022-11-03T14:57:12.122Z,9.89
2022-11-03T14:59:40.844Z,10.04
2022-11-03T15:02:08.540Z,9.90
2022-11-03T15:04:36.304Z,9.88
2022-11-03T15:07:03.989Z,9.87
2022-11-03T15:09:31.657Z,9.81
2022-11-03T15:11:59.322Z,9.59
2022-11-03T15:14:29.759Z,9.69
2022-11-03T15:16:57.446Z,9.64
2022-11-03T15:19:25.100Z,9.71
2022-11-03T15:21:52.765Z,9.65
2022-11-03T15:27:08.186Z,9.56
2022-11-03T15:29:38.419Z,9.40
2022-11-03T15:32:06.937Z,9.47
2022-11-03T15:34:34.629Z,9.48
2022-11-03T15:37:02.339Z,9.44
2022-11-03T15:39:30.633Z,9.35
2022-11-03T15:42:00.073Z,9.31
2022-11-03T15:44:27.774Z,9.40
2022-11-03T15:46:56.816Z,9.37
2022-11-03T15:49:24.595Z,9.35
2022-11-03T15:51:52.423Z,9.39
2022-11-03T15:54:20.115Z,9.25
2022-11-03T15:56:47.888Z,9.26
2022-11-03T15:59:15.578Z,9.22
2022-11-03T16:01:43.390Z,9.23
2022-11-03T16:04:12.844Z,9.30
2022-11-03T16:07:06.094Z,9.24
2022-11-03T16:09:29.582Z,9.15
2022-11-03T16:11:57.308Z,9.20
2022-11-03T16:14:25.071Z,9.25
2022-11-03T16:16:52.883Z,9.20
2022-11-03T16:19:21.868Z,9.28
2022-11-03T16:21:49.583Z,9.30
2022-11-03T16:24:17.433Z,9.27
2022-11-03T16:26:45.216Z,9.27
2022-11-03T16:29:12.905Z,9.22
2022-11-03T16:31:40.568Z,9.25
2022-11-03T16:34:08.303Z,9.23
2022-11-03T16:36:39.212Z,9.27
2022-11-03T16:39:06.850Z,9.23
2022-11-03T16:41:36.417Z,9.19
2022-11-03T16:44:04.180Z,9.18
2022-11-03T16:46:31.869Z,9.14
2022-11-03T16:51:32.259Z,9.11
2022-11-03T16:54:01.377Z,8.96
2022-11-03T16:56:29.089Z,9.05
2022-11-03T16:58:56.775Z,9.05
2022-11-03T17:01:24.584Z,9.07
2022-11-03T17:03:53.943Z,8.75
2022-11-03T17:06:21.600Z,9.06
2022-11-03T17:08:53.476Z,9.06
2022-11-03T17:11:36.742Z,9.07
2022-11-03T17:14:06.026Z,9.09
2022-11-03T17:16:34.267Z,9.07
2022-11-03T17:19:02.002Z,9.06
2022-11-03T17:21:29.681Z,9.01
2022-11-03T17:23:59.239Z,8.53
2022-11-03T17:26:37.756Z,8.96
2022-11-03T17:29:14.686Z,8.97
2022-11-03T17:31:42.525Z,8.86
2022-11-03T17:34:12.953Z,9.02
2022-11-03T17:36:41.232Z,9.01
2022-11-03T17:39:09.610Z,8.96
2022-11-03T17:41:38.616Z,8.97
2022-11-03T17:44:11.977Z,8.94
2022-11-03T17:46:39.762Z,8.77
2022-11-03T17:49:07.540Z,8.88
2022-11-03T17:51:36.672Z,8.86
2022-11-03T17:54:08.058Z,8.89
2022-11-03T17:56:36.417Z,8.97
2022-11-03T17:59:05.698Z,8.81
2022-11-03T18:01:33.603Z,8.81
2022-11-03T18:04:02.657Z,8.92
2022-11-03T18:06:30.773Z,8.93
2022-11-03T18:08:59.402Z,8.94
2022-11-03T18:11:48.787Z,8.91
2022-11-03T18:14:18.279Z,8.73
2022-11-03T18:16:46.514Z,8.90
2022-11-03T18:19:16.053Z,8.97
2022-11-03T18:21:44.003Z,8.97
2022-11-03T18:24:14.135Z,8.97
2022-11-03T18:26:42.389Z,8.99
2022-11-03T18:29:10.406Z,8.96
2022-11-03T18:31:42.307Z,8.97
2022-11-03T18:34:15.291Z,8.96
2022-11-03T18:36:43.203Z,8.99
2022-11-03T18:39:15.444Z,8.77
2022-11-03T18:41:43.996Z,9.03
2022-11-03T18:44:16.415Z,9.00
2022-11-03T18:46:45.744Z,9.08
2022-11-03T18:49:13.740Z,8.78
2022-11-03T18:51:45.761Z,9.01
2022-11-03T18:54:15.362Z,8.94
2022-11-03T18:56:43.389Z,8.95
2022-11-03T18:59:19.587Z,8.91
2022-11-03T19:01:48.751Z,8.64
2022-11-03T19:04:16.823Z,8.78
2022-11-03T19:06:47.122Z,8.26
2022-11-03T19:09:19.563Z,8.64
2022-11-03T19:11:49.793Z,9.02
2022-11-03T19:14:24.504Z,9.00
2022-11-03T19:17:22.491Z,8.98
2022-11-03T19:19:42.298Z,8.98
2022-11-03T19:22:14.349Z,8.93
2022-11-03T19:24:46.121Z,8.85
2022-11-03T19:27:17.717Z,8.71
2022-11-03T19:29:47.703Z,8.96
2022-11-03T19:32:20.261Z,8.94
2022-11-03T19:34:52.516Z,8.78
2022-11-03T19:37:20.190Z,9.04
2022-11-03T19:39:48.389Z,9.13
2022-11-03T19:42:28.454Z,9.17
2022-11-03T19:44:57.873Z,9.25
2022-11-03T19:47:31.606Z,9.19
2022-11-03T19:50:02.343Z,9.04
2022-11-03T19:52:31.610Z,9.41
2022-11-03T19:55:02.820Z,8.99
2022-11-03T19:57:34.172Z,9.35
2022-11-03T20:00:03.009Z,9.19
2022-11-03T20:02:37.019Z,9.12
2022-11-03T20:05:05.290Z,9.31
2022-11-03T20:07:33.108Z,9.06
2022-11-03T20:10:02.811Z,9.37
2022-11-03T20:12:31.582Z,9.21
2022-11-03T20:14:59.373Z,9.00
2022-11-03T20:17:27.242Z,8.86
2022-11-03T20:19:56.404Z,9.24
2022-11-03T20:22:30.151Z,9.11
2022-11-03T20:25:00.306Z,9.18
2022-11-03T20:27:28.401Z,9.23
2022-11-03T20:29:56.381Z,9.22
2022-11-03T20:32:24.103Z,9.23
2022-11-03T20:34:51.746Z,9.06
2022-11-03T20:37:21.615Z,9.23
2022-11-03T20:39:49.949Z,9.22
2022-11-03T20:42:21.536Z,9.16
2022-11-03T20:44:49.327Z,9.20
2022-11-03T20:47:18.038Z,9.26
2022-11-03T20:49:46.466Z,9.25
2022-11-03T20:52:15.302Z,9.10
2022-11-03T20:54:44.593Z,9.14
2022-11-03T20:57:13.660Z,9.24
2022-11-03T20:59:41.949Z,9.24
2022-11-03T21:02:12.884Z,9.21
2022-11-03T21:04:40.976Z,9.20
2022-11-03T21:07:12.200Z,9.25
2022-11-03T21:09:40.098Z,8.97
2022-11-03T21:12:13.063Z,9.25
2022-11-03T21:15:03.929Z,9.31
2022-11-03T21:17:49.161Z,9.36
2022-11-03T21:20:16.976Z,9.38
2022-11-03T21:22:53.925Z,8.91
2022-11-03T21:25:23.953Z,9.44
2022-11-03T21:27:54.230Z,9.45
2022-11-03T21:30:23.518Z,9.41
2022-11-03T21:32:51.410Z,9.46
2022-11-03T21:35:21.426Z,9.42
2022-11-03T21:37:49.379Z,9.33
2022-11-03T21:40:17.649Z,8.66
2022-11-03T21:43:02.649Z,9.41
2022-11-03T21:45:31.858Z,9.28
2022-11-03T21:48:17.524Z,9.35
2022-11-03T21:50:45.737Z,9.33
2022-11-03T21:53:13.677Z,8.90
2022-11-03T21:55:41.699Z,9.33
2022-11-03T21:58:09.675Z,9.12
2022-11-03T22:00:38.835Z,9.28
2022-11-03T22:03:06.967Z,9.23
2022-11-03T22:05:35.027Z,9.18
2022-11-03T22:08:02.752Z,8.31
2022-11-03T22:10:30.429Z,9.12
2022-11-03T22:12:58.232Z,9.05
2022-11-03T22:15:43.363Z,8.87
2022-11-03T22:18:12.847Z,8.85
2022-11-03T22:20:58.295Z,8.90
2022-11-03T22:23:43.627Z,8.99
2022-11-03T22:26:30.255Z,8.90
2022-11-03T22:29:16.989Z,8.82
2022-11-03T22:31:44.745Z,8.98
2022-11-03T22:34:31.667Z,8.84
2022-11-03T22:36:59.637Z,8.86
2022-11-03T22:39:44.877Z,9.02
2022-11-03T22:42:31.172Z,9.11
2022-11-03T22:45:16.307Z,9.07
2022-11-03T22:47:44.016Z,9.01
2022-11-03T22:50:13.032Z,9.09
2022-11-03T22:52:40.811Z,8.56
2022-11-03T22:55:07.752Z,9.06
2022-11-03T22:57:35.416Z,8.65
2022-11-03T23:00:05.592Z,9.18
2022-11-03T23:02:33.506Z,8.79
2022-11-03T23:05:01.291Z,9.19
2022-11-03T23:07:32.382Z,9.16
2022-11-03T23:10:04.576Z,8.76
2022-11-03T23:12:32.839Z,9.22
2022-11-03T23:15:18.062Z,8.92
2022-11-03T23:18:03.197Z,9.28
2022-11-03T23:20:56.699Z,9.34
2022-11-03T23:23:43.094Z,9.31
2022-11-03T23:26:11.128Z,9.34
2022-11-03T23:28:38.870Z,9.31
2022-11-03T23:31:07.151Z,9.37
2022-11-03T23:33:35.513Z,9.62
2022-11-03T23:36:07.784Z,9.54
2022-11-03T23:38:38.051Z,9.82
2022-11-03T23:41:07.855Z,9.91
2022-11-03T23:43:35.885Z,9.98
2022-11-03T23:46:20.701Z,10.05
2022-11-03T23:48:48.878Z,9.86
2022-11-03T23:51:17.390Z,10.12
2022-11-03T23:53:47.071Z,10.32
2022-11-03T23:56:34.074Z,10.28
2022-11-03T23:59:01.848Z,10.22
